Everglades National Park, FL

4:04 PM EDT on August 26, 2016 (GMT -0400)
Westbury Estates | | Change Station

Elev 23 ft 25.49 °N, 80.50 °W | Updated 1 second ago

Clear
Clear
89.4 °F
Feels Like 100 °F
N
1.3
Wind Variable Wind from ENE
Gusts 2.5 mph

Today
High -- | Low -- °F
--% Chance of Precip.
Yesterday
High -- | Low -- °F
Precip. -- in
Pressure 29.90 in
Visibility 10.0 miles
Clouds Clear
Heat Index 100 °F
Dew Point 75 °F
Humidity 63%
Rainfall 0.18 in
Snow Depth Not available.
7:00 AM 7:46 PM
Waning Crescent, 31% visible
METAR KHST 261958Z AUTO 07010KT 10SM CLR 31/25 A2989 RMK AO2 SLP125 T03140253
Pressure 29.90 in
Visibility 10.0 miles
Clouds Clear
Heat Index 100 °F
Dew Point 75 °F
Humidity 63%
Rainfall 0.18 in
Snow Depth Not available.
7:00 AM 7:46 PM
Waning Crescent, 31% visible
METAR KHST 261958Z AUTO 07010KT 10SM CLR 31/25 A2989 RMK AO2 SLP125 T03140253

10-Day Weather Forecast

Almanac

Astronomy

Aug. 26, 2016 Rise Set
Actual Time
Civil Twilight
Nautical Twilight
Astronomical Twilight
Moon
Length of Visible Light
Length of Day
Tomorrow will be .
, % of the Moon is Illuminated

Today's Extremes

State Highs State Lows

Community

WunderPhotos

Upload Photos

1,935,191 photos uploaded!

WunderBlog® & News

Nearby

Air Quality

  Air Quality AQ Index Pollutant
Not available.

Snow Depth

Station Depth Elevation

Earthquake Activity

City Distance Mag. Time & Date
Minimum magnitude displayed is 2.5.

Coastal Water Temperatures

Place Temperature

Stations

Nearby Weather Stations

Station Location Temp. Windchill Dew Point Humidity Wind Precip. Elev Updated Type
                   

Watches & Warnings

There are currently no watches in effect.